createdAt,value
2019-04-05T00:02:04.513Z,100.00
2019-04-05T00:04:33.333Z,100.00
2019-04-05T00:07:02.079Z,100.00
2019-04-05T00:09:30.840Z,100.00
2019-04-05T00:11:59.654Z,100.00
2019-04-05T00:14:28.541Z,100.00
2019-04-05T00:16:57.445Z,100.00
2019-04-05T00:19:26.188Z,100.00
2019-04-05T00:21:55.021Z,100.00
2019-04-05T00:24:23.805Z,100.00
2019-04-05T00:26:52.538Z,100.00
2019-04-05T00:29:21.225Z,100.00
2019-04-05T00:31:49.988Z,100.00
2019-04-05T00:34:18.792Z,100.00
2019-04-05T00:36:48.278Z,100.00
2019-04-05T00:39:17.070Z,100.00
2019-04-05T00:41:45.917Z,100.00
2019-04-05T00:44:14.665Z,100.00
2019-04-05T00:46:44.828Z,100.00
2019-04-05T00:49:13.712Z,100.00
2019-04-05T00:51:42.463Z,100.00
2019-04-05T00:54:11.223Z,100.00
2019-04-05T00:56:40.103Z,100.00
2019-04-05T00:59:08.840Z,100.00
2019-04-05T01:01:37.820Z,100.00
2019-04-05T01:04:06.563Z,100.00
2019-04-05T01:06:35.337Z,100.00
2019-04-05T01:09:04.838Z,100.00
2019-04-05T01:11:33.609Z,100.00
2019-04-05T01:14:03.344Z,100.00
2019-04-05T01:16:32.106Z,100.00
2019-04-05T01:19:03.861Z,100.00
2019-04-05T01:21:34.245Z,100.00
2019-04-05T01:24:04.758Z,100.00
2019-04-05T01:26:35.005Z,100.00
2019-04-05T01:29:03.748Z,100.00
2019-04-05T01:31:32.559Z,100.00
2019-04-05T01:34:01.512Z,100.00
2019-04-05T01:36:30.287Z,100.00
2019-04-05T01:38:59.196Z,100.00
2019-04-05T01:41:28.191Z,100.00
2019-04-05T01:43:56.989Z,100.00
2019-04-05T01:46:25.784Z,100.00
2019-04-05T01:48:54.549Z,100.00
2019-04-05T01:51:23.527Z,100.00
2019-04-05T01:53:52.330Z,100.00
2019-04-05T01:56:21.177Z,100.00
2019-04-05T01:58:49.932Z,100.00
2019-04-05T02:01:18.742Z,100.00
2019-04-05T02:03:47.512Z,100.00
2019-04-05T02:06:16.173Z,100.00
2019-04-05T02:08:45.031Z,100.00
2019-04-05T02:11:13.838Z,100.00
2019-04-05T02:13:42.577Z,100.00
2019-04-05T02:16:11.468Z,100.00
2019-04-05T02:18:40.205Z,100.00
2019-04-05T02:21:09.007Z,100.00
2019-04-05T02:23:37.862Z,100.00
2019-04-05T02:26:06.688Z,100.00
2019-04-05T02:28:35.545Z,100.00
2019-04-05T02:31:04.285Z,100.00
2019-04-05T02:33:33.242Z,100.00
2019-04-05T02:36:01.976Z,100.00
2019-04-05T02:38:30.752Z,100.00
2019-04-05T02:41:01.235Z,100.00
2019-04-05T02:43:32.820Z,100.00
2019-04-05T02:46:04.409Z,100.00
2019-04-05T02:48:36.300Z,100.00
2019-04-05T02:51:07.688Z,100.00
2019-04-05T02:53:39.377Z,100.00
2019-04-05T02:56:08.712Z,100.00
2019-04-05T02:58:40.089Z,100.00
2019-04-05T03:01:10.650Z,100.00
2019-04-05T03:03:41.326Z,100.00
2019-04-05T03:06:10.208Z,100.00
2019-04-05T03:08:41.111Z,100.00
2019-04-05T03:11:18.043Z,100.00
2019-04-05T03:13:52.438Z,100.00
2019-04-05T03:16:39.393Z,100.00
2019-04-05T03:19:00.427Z,100.00
2019-04-05T03:21:30.097Z,100.00
2019-04-05T03:24:02.004Z,100.00
2019-04-05T03:26:33.697Z,100.00
2019-04-05T03:29:05.465Z,100.00
2019-04-05T03:31:35.640Z,100.00
2019-04-05T03:34:05.862Z,100.00
2019-04-05T03:36:35.464Z,100.00
2019-04-05T03:39:07.508Z,100.00
2019-04-05T03:41:37.993Z,100.00
2019-04-05T03:44:09.034Z,100.00
2019-04-05T03:46:38.028Z,100.00
2019-04-05T03:49:07.264Z,100.00
2019-04-05T03:51:36.006Z,100.00
2019-04-05T03:54:06.429Z,100.00
2019-04-05T03:56:38.368Z,100.00
2019-04-05T03:59:09.054Z,100.00
2019-04-05T04:01:40.717Z,100.00
2019-04-05T04:04:09.507Z,100.00
2019-04-05T04:06:38.417Z,100.00
2019-04-05T04:09:07.540Z,100.00
2019-04-05T04:11:37.832Z,100.00
2019-04-05T04:14:08.423Z,100.00
2019-04-05T04:16:37.246Z,100.00
2019-04-05T04:19:06.156Z,100.00
2019-04-05T04:21:40.862Z,100.00
2019-04-05T04:24:11.317Z,100.00
2019-04-05T04:26:40.263Z,100.00
2019-04-05T04:29:09.133Z,100.00
2019-04-05T04:31:38.012Z,100.00
2019-04-05T04:34:08.300Z,100.00
2019-04-05T04:36:37.222Z,100.00
2019-04-05T04:39:07.260Z,100.00
2019-04-05T04:41:36.753Z,100.00
2019-04-05T04:44:06.092Z,100.00
2019-04-05T04:46:34.938Z,100.00
2019-04-05T04:49:04.306Z,100.00
2019-04-05T04:51:35.022Z,100.00
2019-04-05T04:54:03.986Z,100.00
2019-04-05T04:56:32.994Z,100.00
2019-04-05T04:59:01.762Z,100.00
2019-04-05T05:01:30.619Z,100.00
2019-04-05T05:04:00.416Z,100.00
2019-04-05T05:06:29.613Z,100.00
2019-04-05T05:08:59.486Z,100.00
2019-04-05T05:11:41.530Z,100.00
2019-04-05T05:14:13.340Z,100.00
2019-04-05T05:16:42.549Z,100.00
2019-04-05T05:19:11.849Z,100.00
2019-04-05T05:21:41.599Z,100.00
2019-04-05T05:24:10.844Z,100.00
2019-04-05T05:26:40.193Z,100.00
2019-04-05T05:29:09.597Z,100.00
2019-04-05T05:31:42.283Z,100.00
2019-04-05T05:34:13.057Z,100.00
2019-04-05T05:36:42.411Z,100.00
2019-04-05T05:39:12.465Z,100.00
2019-04-05T05:41:41.446Z,100.00
2019-04-05T05:44:10.189Z,100.00
2019-04-05T05:46:39.136Z,100.00
2019-04-05T05:49:07.906Z,100.00
2019-04-05T05:51:37.481Z,100.00
2019-04-05T05:54:06.275Z,100.00
2019-04-05T05:56:35.016Z,100.00
2019-04-05T05:59:03.972Z,100.00
2019-04-05T06:01:32.702Z,100.00
2019-04-05T06:04:01.588Z,100.00
2019-04-05T06:06:30.334Z,100.00
2019-04-05T06:08:59.274Z,100.00
2019-04-05T06:11:28.142Z,100.00
2019-04-05T06:13:56.962Z,100.00
2019-04-05T06:16:25.728Z,100.00
2019-04-05T06:18:54.511Z,100.00
2019-04-05T06:21:23.361Z,100.00
2019-04-05T06:23:52.109Z,100.00
2019-04-05T06:26:20.929Z,100.00
2019-04-05T06:28:49.888Z,100.00
2019-04-05T06:31:18.810Z,100.00
2019-04-05T06:33:47.567Z,100.00
2019-04-05T06:36:16.442Z,100.00
2019-04-05T06:38:45.115Z,100.00
2019-04-05T06:41:13.799Z,100.00
2019-04-05T06:43:42.581Z,100.00
2019-04-05T06:46:11.431Z,100.00
2019-04-05T06:48:40.278Z,100.00
2019-04-05T06:51:09.131Z,100.00
2019-04-05T06:53:37.876Z,100.00
2019-04-05T06:56:06.664Z,100.00
2019-04-05T06:58:35.443Z,100.00
2019-04-05T07:01:04.303Z,100.00
2019-04-05T07:03:33.087Z,100.00
2019-04-05T07:06:01.918Z,100.00
2019-04-05T07:08:30.821Z,100.00
2019-04-05T07:10:59.551Z,100.00
2019-04-05T07:13:28.471Z,100.00
2019-04-05T07:16:02.436Z,100.00
2019-04-05T07:18:35.818Z,100.00
2019-04-05T07:21:01.881Z,100.00
2019-04-05T07:23:30.672Z,100.00
2019-04-05T07:25:59.410Z,100.00
2019-04-05T07:28:28.200Z,100.00
2019-04-05T07:30:56.995Z,100.00
2019-04-05T07:33:25.850Z,100.00
2019-04-05T07:35:55.623Z,100.00
2019-04-05T07:38:24.422Z,99.56
2019-04-05T07:40:53.127Z,99.31
2019-04-05T07:43:21.923Z,99.25
2019-04-05T07:45:50.705Z,98.88
2019-04-05T07:48:19.469Z,98.97
2019-04-05T07:50:48.280Z,97.98
2019-04-05T07:53:17.042Z,97.49
2019-04-05T07:55:45.804Z,97.49
2019-04-05T07:58:14.590Z,97.27
2019-04-05T08:00:48.832Z,97.40
2019-04-05T08:03:17.727Z,96.43
2019-04-05T08:05:47.405Z,96.79
2019-04-05T08:08:21.865Z,95.40
2019-04-05T08:10:50.866Z,94.65
2019-04-05T08:13:21.906Z,94.52
2019-04-05T08:15:52.083Z,95.44
2019-04-05T08:18:20.846Z,96.92
2019-04-05T08:20:49.615Z,96.06
2019-04-05T08:23:18.406Z,95.54
2019-04-05T08:25:47.214Z,95.60
2019-04-05T08:28:16.116Z,96.07
2019-04-05T08:30:44.901Z,95.50
2019-04-05T08:33:13.640Z,94.95
2019-04-05T08:35:42.445Z,95.29
2019-04-05T08:38:11.303Z,95.26
2019-04-05T08:40:40.083Z,93.87
2019-04-05T08:43:08.926Z,93.66
2019-04-05T08:45:37.696Z,94.01
2019-04-05T08:48:06.609Z,92.84
2019-04-05T08:50:35.342Z,92.62
2019-04-05T08:53:05.172Z,91.68
2019-04-05T08:55:33.974Z,91.46
2019-04-05T08:58:03.893Z,91.46
2019-04-05T09:00:32.706Z,90.82
2019-04-05T09:03:01.494Z,85.08
2019-04-05T09:05:33.220Z,86.62
2019-04-05T09:08:01.013Z,83.87
2019-04-05T09:10:29.823Z,85.69
2019-04-05T09:12:58.659Z,87.24
2019-04-05T09:15:27.401Z,90.76
2019-04-05T09:17:56.189Z,90.49
2019-04-05T09:20:24.988Z,89.51
2019-04-05T09:22:53.766Z,90.11
2019-04-05T09:25:22.539Z,89.98
2019-04-05T09:27:51.334Z,87.17
2019-04-05T09:30:20.213Z,88.05
2019-04-05T09:32:49.001Z,85.05
2019-04-05T09:35:17.854Z,83.43
2019-04-05T09:37:46.687Z,83.88
2019-04-05T09:40:15.433Z,85.55
2019-04-05T09:42:44.229Z,85.71
2019-04-05T09:45:13.103Z,87.79
2019-04-05T09:47:41.972Z,87.79
2019-04-05T09:50:11.084Z,86.46
2019-04-05T09:52:40.249Z,84.90
2019-04-05T09:55:09.759Z,83.08
2019-04-05T09:57:39.312Z,84.05
2019-04-05T10:00:11.844Z,84.68
2019-04-05T10:02:40.641Z,83.96
2019-04-05T10:05:09.431Z,81.42
2019-04-05T10:07:53.799Z,83.20
2019-04-05T10:10:11.283Z,83.25
2019-04-05T10:12:43.860Z,82.39
2019-04-05T10:15:15.804Z,82.56
2019-04-05T10:17:45.791Z,81.81
2019-04-05T10:20:19.220Z,84.64
2019-04-05T10:22:48.268Z,82.56
2019-04-05T10:25:16.999Z,83.51
2019-04-05T10:27:46.010Z,83.37
2019-04-05T10:30:15.471Z,81.92
2019-04-05T10:32:46.081Z,81.99
2019-04-05T10:35:14.829Z,83.05
2019-04-05T10:37:43.603Z,80.17
2019-04-05T10:40:12.806Z,80.51
2019-04-05T10:42:41.566Z,82.58
2019-04-05T10:45:12.673Z,82.58
2019-04-05T10:47:41.566Z,83.14
2019-04-05T10:50:13.043Z,84.48
2019-04-05T10:52:43.797Z,82.86
2019-04-05T10:55:16.483Z,82.60
2019-04-05T10:57:45.497Z,82.80
2019-04-05T11:00:17.604Z,81.35
2019-04-05T11:02:46.502Z,81.02
2019-04-05T11:05:16.306Z,81.35
2019-04-05T11:07:45.599Z,80.52
2019-04-05T11:10:18.647Z,82.38
2019-04-05T11:12:49.896Z,80.71
2019-04-05T11:15:18.735Z,79.93
2019-04-05T11:17:47.650Z,78.83
2019-04-05T11:20:21.577Z,79.99
2019-04-05T11:22:52.364Z,78.31
2019-04-05T11:25:22.187Z,77.63
2019-04-05T11:27:52.198Z,76.97
2019-04-05T11:30:47.279Z,78.00
2019-04-05T11:33:19.249Z,78.70
2019-04-05T11:35:46.910Z,77.05
2019-04-05T11:38:18.429Z,75.62
2019-04-05T11:40:49.600Z,76.84
2019-04-05T11:43:19.419Z,73.22
2019-04-05T11:45:50.835Z,73.35
2019-04-05T11:48:19.486Z,74.25
2019-04-05T11:50:48.519Z,73.62
2019-04-05T11:53:17.294Z,73.38
2019-04-05T11:55:46.763Z,76.36
2019-04-05T11:58:15.819Z,78.11
2019-04-05T12:01:03.756Z,78.14
2019-04-05T12:03:34.104Z,79.44
2019-04-05T12:06:02.870Z,81.02
2019-04-05T12:08:31.694Z,81.35
2019-04-05T12:11:03.017Z,81.77
2019-04-05T12:13:31.797Z,80.68
2019-04-05T12:16:00.807Z,81.14
2019-04-05T12:18:30.453Z,78.89
2019-04-05T12:21:00.582Z,77.15
2019-04-05T12:23:32.418Z,74.40
2019-04-05T12:26:03.856Z,73.67
2019-04-05T12:28:31.032Z,71.80
2019-04-05T12:30:59.875Z,72.30
2019-04-05T12:33:28.705Z,71.01
2019-04-05T12:35:57.545Z,72.60
2019-04-05T12:38:33.369Z,73.78
2019-04-05T12:41:10.738Z,75.68
2019-04-05T12:43:37.411Z,76.62
2019-04-05T12:46:06.483Z,76.42
2019-04-05T12:48:35.242Z,77.39
2019-04-05T12:51:05.648Z,77.47
2019-04-05T12:53:34.792Z,76.55
2019-04-05T12:56:04.075Z,76.97
2019-04-05T12:58:33.033Z,77.36
2019-04-05T13:01:01.941Z,74.65
2019-04-05T13:03:30.708Z,74.17
2019-04-05T13:05:59.479Z,72.95
2019-04-05T13:08:28.292Z,72.27
2019-04-05T13:10:57.160Z,72.17
2019-04-05T13:13:27.557Z,72.88
2019-04-05T13:15:59.181Z,71.78
2019-04-05T13:18:30.553Z,74.70
2019-04-05T13:20:58.279Z,71.55
2019-04-05T13:23:28.151Z,72.05
2019-04-05T13:25:57.149Z,72.31
2019-04-05T13:28:25.904Z,74.44
2019-04-05T13:30:55.505Z,76.36
2019-04-05T13:33:25.467Z,75.07
2019-04-05T13:35:54.355Z,74.45
2019-04-05T13:38:23.201Z,73.81
2019-04-05T13:40:52.186Z,74.85
2019-04-05T13:43:20.923Z,75.15
2019-04-05T13:45:49.709Z,75.48
2019-04-05T13:48:18.572Z,72.76
2019-04-05T13:50:47.498Z,72.23
2019-04-05T13:53:16.250Z,71.93
2019-04-05T13:55:47.372Z,71.62
2019-04-05T13:58:15.989Z,72.56
2019-04-05T14:00:48.366Z,72.53
2019-04-05T14:03:15.466Z,72.43
2019-04-05T14:05:44.346Z,73.27
2019-04-05T14:08:13.110Z,74.48
2019-04-05T14:10:42.070Z,76.28
2019-04-05T14:13:11.000Z,76.79
2019-04-05T14:15:42.152Z,76.90
2019-04-05T14:18:10.297Z,77.83
2019-04-05T14:20:39.282Z,78.69
2019-04-05T14:23:08.021Z,78.21
2019-04-05T14:25:36.835Z,79.37
2019-04-05T14:28:05.858Z,78.73
2019-04-05T14:30:34.701Z,79.06
2019-04-05T14:33:03.480Z,79.37
2019-04-05T14:35:32.386Z,78.63
2019-04-05T14:38:01.175Z,79.33
2019-04-05T14:40:32.911Z,80.10
2019-04-05T14:43:00.590Z,79.88
2019-04-05T14:45:29.375Z,80.13
2019-04-05T14:47:58.634Z,80.30
2019-04-05T14:50:28.948Z,80.26
2019-04-05T14:53:00.756Z,81.02
2019-04-05T14:55:29.940Z,79.21
2019-04-05T14:57:58.878Z,78.33
2019-04-05T15:00:27.772Z,78.91
2019-04-05T15:02:56.633Z,79.15
2019-04-05T15:05:25.536Z,79.52
2019-04-05T15:07:55.108Z,80.10
2019-04-05T15:10:25.287Z,79.94
2019-04-05T15:12:54.960Z,80.45
2019-04-05T15:15:23.758Z,80.99
2019-04-05T15:17:52.647Z,81.45
2019-04-05T15:20:22.631Z,82.19
2019-04-05T15:22:51.392Z,82.70
2019-04-05T15:25:21.826Z,82.05
2019-04-05T15:27:55.192Z,82.34
2019-04-05T15:30:25.525Z,82.24
2019-04-05T15:32:52.353Z,82.03
2019-04-05T15:35:21.178Z,81.87
2019-04-05T15:37:49.940Z,82.57
2019-04-05T15:40:20.732Z,82.36
2019-04-05T15:42:49.467Z,82.61
2019-04-05T15:45:18.433Z,83.16
2019-04-05T15:47:47.202Z,82.97
2019-04-05T15:50:16.122Z,82.78
2019-04-05T15:52:44.893Z,83.40
2019-04-05T15:55:14.026Z,83.73
2019-04-05T15:57:43.063Z,83.80
2019-04-05T16:00:14.339Z,83.71
2019-04-05T16:02:43.205Z,83.63
2019-04-05T16:05:13.033Z,83.23
2019-04-05T16:07:41.863Z,83.05
2019-04-05T16:10:12.043Z,83.64
2019-04-05T16:12:40.880Z,82.96
2019-04-05T16:15:11.005Z,83.22
2019-04-05T16:17:39.821Z,83.35
2019-04-05T16:20:11.148Z,83.95
2019-04-05T16:22:39.942Z,83.66
2019-04-05T16:25:09.149Z,83.65
2019-04-05T16:27:39.964Z,84.15
2019-04-05T16:30:10.656Z,84.10
2019-04-05T16:32:39.717Z,84.57
2019-04-05T16:35:09.811Z,84.52
2019-04-05T16:37:38.748Z,85.00
2019-04-05T16:40:10.421Z,84.81
2019-04-05T16:42:39.237Z,85.12
2019-04-05T16:45:12.703Z,85.15
2019-04-05T16:47:41.564Z,84.91
2019-04-05T16:50:12.499Z,85.06
2019-04-05T16:52:44.985Z,85.48
2019-04-05T16:55:12.014Z,85.04
2019-04-05T16:57:40.909Z,84.87
2019-04-05T17:00:12.793Z,84.62
2019-04-05T17:02:41.602Z,84.42
2019-04-05T17:05:10.755Z,84.61
2019-04-05T17:07:39.649Z,84.93
2019-04-05T17:10:08.664Z,85.11
2019-04-05T17:12:37.395Z,85.15
2019-04-05T17:15:08.549Z,85.69
2019-04-05T17:17:37.419Z,85.79
2019-04-05T17:20:07.622Z,85.51
2019-04-05T17:22:36.357Z,85.82
2019-04-05T17:25:06.792Z,86.13
2019-04-05T17:27:35.572Z,86.55
2019-04-05T17:30:07.883Z,86.76
2019-04-05T17:32:36.715Z,86.55
2019-04-05T17:35:06.764Z,86.20
2019-04-05T17:37:35.600Z,86.69
2019-04-05T17:40:08.695Z,86.62
2019-04-05T17:42:37.496Z,86.35
2019-04-05T17:45:09.140Z,86.80
2019-04-05T17:47:38.142Z,87.02
2019-04-05T17:50:10.537Z,86.75
2019-04-05T17:52:38.492Z,86.90
2019-04-05T17:55:07.567Z,87.00
2019-04-05T17:57:36.406Z,87.13
2019-04-05T18:00:09.870Z,87.28
2019-04-05T18:02:38.656Z,87.42
2019-04-05T18:05:08.832Z,87.72
2019-04-05T18:07:37.582Z,88.20
2019-04-05T18:10:06.956Z,88.33
2019-04-05T18:12:35.880Z,88.50
2019-04-05T18:15:05.957Z,88.30
2019-04-05T18:17:35.010Z,88.20
2019-04-05T18:20:15.368Z,88.23
2019-04-05T18:22:44.277Z,88.34
2019-04-05T18:25:14.393Z,88.43
2019-04-05T18:27:57.086Z,89.11
2019-04-05T18:30:26.516Z,89.70
2019-04-05T18:32:55.478Z,90.27
2019-04-05T18:35:24.245Z,90.69
2019-04-05T18:37:52.968Z,90.78
2019-04-05T18:40:21.845Z,91.03
2019-04-05T18:42:50.682Z,91.14
2019-04-05T18:45:19.608Z,91.60
2019-04-05T18:47:48.415Z,91.69
2019-04-05T18:50:17.319Z,92.06
2019-04-05T18:52:46.131Z,92.35
2019-04-05T18:55:16.995Z,92.23
2019-04-05T18:57:45.831Z,92.33
2019-04-05T19:00:14.700Z,92.72
2019-04-05T19:02:43.466Z,92.68
2019-04-05T19:05:12.494Z,93.01
2019-04-05T19:07:41.287Z,93.16
2019-04-05T19:10:10.135Z,93.64
2019-04-05T19:12:39.267Z,93.65
2019-04-05T19:15:17.365Z,93.50
2019-04-05T19:17:49.055Z,93.08
2019-04-05T19:20:22.567Z,93.23
2019-04-05T19:23:01.431Z,92.81
2019-04-05T19:25:33.818Z,92.61
2019-04-05T19:28:09.121Z,92.73
2019-04-05T19:48:35.996Z,93.28
2019-04-05T19:50:50.880Z,93.21
2019-04-05T19:53:19.664Z,93.24
2019-04-05T19:55:48.381Z,93.51
2019-04-05T19:58:17.254Z,94.00
2019-04-05T20:00:45.993Z,94.16
2019-04-05T20:03:14.729Z,93.64
2019-04-05T20:05:43.636Z,93.74
2019-04-05T20:08:12.444Z,93.13
2019-04-05T20:10:41.649Z,93.31
2019-04-05T20:13:10.409Z,93.67
2019-04-05T20:15:39.473Z,93.70
2019-04-05T20:18:08.324Z,93.57
2019-04-05T20:20:37.075Z,93.43
2019-04-05T20:23:05.929Z,93.48
2019-04-05T20:25:34.734Z,93.65
2019-04-05T20:28:03.538Z,93.59
2019-04-05T20:30:45.309Z,93.76
2019-04-05T20:33:28.573Z,93.85
2019-04-05T20:36:11.263Z,93.58
2019-04-05T20:38:55.623Z,93.78
2019-04-05T20:41:37.073Z,93.67
2019-04-05T20:44:19.409Z,93.90
2019-04-05T20:46:51.143Z,94.39
2019-04-05T20:49:24.555Z,94.69
2019-04-05T20:51:53.480Z,95.00
2019-04-05T20:54:24.764Z,95.02
2019-04-05T20:56:52.936Z,94.97
2019-04-05T20:59:21.705Z,94.76
2019-04-05T21:01:50.621Z,93.98
2019-04-05T21:04:19.642Z,93.94
2019-04-05T21:06:48.383Z,93.80
2019-04-05T21:09:17.348Z,93.81
2019-04-05T21:11:46.134Z,93.93
2019-04-05T21:14:14.889Z,94.26
2019-04-05T21:16:43.654Z,94.26
2019-04-05T21:19:12.896Z,94.47
2019-04-05T21:21:41.777Z,94.16
2019-04-05T21:24:10.517Z,94.08
2019-04-05T21:26:40.374Z,94.27
2019-04-05T21:29:09.285Z,94.54
2019-04-05T21:31:38.180Z,94.72
2019-04-05T21:34:07.069Z,94.84
2019-04-05T21:36:35.803Z,94.89
2019-04-05T21:39:08.009Z,94.93
2019-04-05T21:41:36.768Z,94.94
2019-04-05T21:44:05.623Z,95.06
2019-04-05T21:46:34.387Z,94.81
2019-04-05T21:49:03.204Z,94.99
2019-04-05T21:51:31.926Z,94.91
2019-04-05T21:54:00.849Z,95.01
2019-04-05T21:56:29.625Z,95.07
2019-04-05T21:58:58.816Z,95.58
2019-04-05T22:01:27.561Z,95.49
2019-04-05T22:03:56.516Z,95.30
2019-04-05T22:06:25.424Z,95.29
2019-04-05T22:08:54.209Z,95.00
2019-04-05T22:11:22.944Z,95.21
2019-04-05T22:13:51.751Z,94.93
2019-04-05T22:16:20.479Z,95.08
2019-04-05T22:18:49.282Z,95.23
2019-04-05T22:21:18.187Z,95.05
2019-04-05T22:23:46.927Z,95.29
2019-04-05T22:26:15.692Z,95.12
2019-04-05T22:28:44.461Z,95.51
2019-04-05T22:31:13.194Z,95.63
2019-04-05T22:33:42.091Z,95.28
2019-04-05T22:36:10.859Z,95.66
2019-04-05T22:38:39.587Z,95.74
2019-04-05T22:41:08.524Z,95.78
2019-04-05T22:43:37.274Z,95.77
2019-04-05T22:46:06.016Z,95.57
2019-04-05T22:48:34.797Z,95.62
2019-04-05T22:51:03.588Z,95.73
2019-04-05T22:53:32.356Z,95.76
2019-04-05T22:56:01.174Z,96.02
2019-04-05T22:58:31.731Z,96.12
2019-04-05T23:01:00.541Z,96.23
2019-04-05T23:03:29.279Z,96.01
2019-04-05T23:05:58.008Z,96.13
2019-04-05T23:08:26.774Z,96.37
2019-04-05T23:10:55.527Z,96.32
2019-04-05T23:13:24.387Z,96.38
2019-04-05T23:15:53.130Z,96.31
2019-04-05T23:18:21.869Z,96.00
2019-04-05T23:20:50.646Z,96.17
2019-04-05T23:23:19.379Z,96.15
2019-04-05T23:25:48.205Z,96.04
2019-04-05T23:28:16.949Z,95.96
2019-04-05T23:30:45.681Z,95.97
2019-04-05T23:33:14.548Z,96.00
2019-04-05T23:35:43.275Z,96.31
2019-04-05T23:38:12.035Z,96.38
2019-04-05T23:40:40.823Z,96.28
2019-04-05T23:43:09.577Z,96.26
2019-04-05T23:45:38.352Z,96.36
2019-04-05T23:48:07.078Z,96.23
2019-04-05T23:50:35.813Z,96.39
2019-04-05T23:53:05.267Z,96.76
2019-04-05T23:55:33.996Z,96.76
2019-04-05T23:58:02.859Z,96.94
